sensor_id;sensor_type;location;lat;lon;timestamp;P1;durP1;ratioP1;P2;durP2;ratioP2
19617;SDS011;9956;51.006;13.670;2022-08-05T00:02:05;3.25;;;3.05;;
19617;SDS011;9956;51.006;13.670;2022-08-05T00:07:05;3.38;;;2.72;;
19617;SDS011;9956;51.006;13.670;2022-08-05T00:12:06;5.07;;;2.85;;
19617;SDS011;9956;51.006;13.670;2022-08-05T00:17:06;3.05;;;2.75;;
19617;SDS011;9956;51.006;13.670;2022-08-05T00:22:07;7.18;;;3.17;;
19617;SDS011;9956;51.006;13.670;2022-08-05T00:27:07;2.85;;;2.60;;
19617;SDS011;9956;51.006;13.670;2022-08-05T00:32:08;4.47;;;2.90;;
19617;SDS011;9956;51.006;13.670;2022-08-05T00:37:11;3.38;;;3.08;;
19617;SDS011;9956;51.006;13.670;2022-08-05T00:42:12;3.58;;;2.95;;
19617;SDS011;9956;51.006;13.670;2022-08-05T00:47:15;3.80;;;3.20;;
19617;SDS011;9956;51.006;13.670;2022-08-05T00:52:15;2.97;;;2.78;;
19617;SDS011;9956;51.006;13.670;2022-08-05T00:57:16;5.72;;;3.25;;
19617;SDS011;9956;51.006;13.670;2022-08-05T01:02:16;3.60;;;3.30;;
19617;SDS011;9956;51.006;13.670;2022-08-05T01:07:17;5.32;;;3.50;;
19617;SDS011;9956;51.006;13.670;2022-08-05T01:12:17;3.75;;;2.80;;
19617;SDS011;9956;51.006;13.670;2022-08-05T01:17:28;4.43;;;2.83;;
19617;SDS011;9956;51.006;13.670;2022-08-05T01:33:13;4.53;;;3.20;;
19617;SDS011;9956;51.006;13.670;2022-08-05T01:38:14;4.32;;;3.20;;
19617;SDS011;9956;51.006;13.670;2022-08-05T01:43:16;4.38;;;3.33;;
19617;SDS011;9956;51.006;13.670;2022-08-05T01:48:17;3.30;;;3.00;;
19617;SDS011;9956;51.006;13.670;2022-08-05T01:53:18;5.03;;;3.38;;
19617;SDS011;9956;51.006;13.670;2022-08-05T01:58:20;4.07;;;3.45;;
19617;SDS011;9956;51.006;13.670;2022-08-05T02:03:36;4.15;;;3.85;;
19617;SDS011;9956;51.006;13.670;2022-08-05T02:08:38;3.75;;;3.42;;
19617;SDS011;9956;51.006;13.670;2022-08-05T02:14:01;4.45;;;3.58;;
19617;SDS011;9956;51.006;13.670;2022-08-05T02:19:12;3.85;;;3.35;;
19617;SDS011;9956;51.006;13.670;2022-08-05T02:24:25;5.13;;;3.47;;
19617;SDS011;9956;51.006;13.670;2022-08-05T02:29:36;3.85;;;3.55;;
19617;SDS011;9956;51.006;13.670;2022-08-05T02:34:37;5.78;;;3.63;;
19617;SDS011;9956;51.006;13.670;2022-08-05T02:39:38;4.00;;;3.60;;
19617;SDS011;9956;51.006;13.670;2022-08-05T02:44:39;4.85;;;3.35;;
19617;SDS011;9956;51.006;13.670;2022-08-05T02:49:40;4.60;;;3.40;;
19617;SDS011;9956;51.006;13.670;2022-08-05T02:54:41;3.75;;;3.08;;
19617;SDS011;9956;51.006;13.670;2022-08-05T02:59:46;3.53;;;3.22;;
19617;SDS011;9956;51.006;13.670;2022-08-05T03:04:47;4.28;;;3.20;;
19617;SDS011;9956;51.006;13.670;2022-08-05T03:09:49;3.60;;;3.30;;
19617;SDS011;9956;51.006;13.670;2022-08-05T03:14:50;3.60;;;3.30;;
19617;SDS011;9956;51.006;13.670;2022-08-05T03:19:50;3.45;;;3.15;;
19617;SDS011;9956;51.006;13.670;2022-08-05T03:24:51;3.45;;;2.85;;
19617;SDS011;9956;51.006;13.670;2022-08-05T03:29:51;6.32;;;3.40;;
19617;SDS011;9956;51.006;13.670;2022-08-05T03:34:52;4.40;;;3.35;;
19617;SDS011;9956;51.006;13.670;2022-08-05T03:39:56;4.10;;;3.70;;
19617;SDS011;9956;51.006;13.670;2022-08-05T03:44:57;4.75;;;3.70;;
19617;SDS011;9956;51.006;13.670;2022-08-05T03:49:58;3.95;;;3.00;;
19617;SDS011;9956;51.006;13.670;2022-08-05T03:55:03;4.35;;;3.40;;
19617;SDS011;9956;51.006;13.670;2022-08-05T04:00:13;5.28;;;3.60;;
19617;SDS011;9956;51.006;13.670;2022-08-05T04:05:15;5.45;;;3.60;;
19617;SDS011;9956;51.006;13.670;2022-08-05T04:10:16;4.18;;;3.72;;
19617;SDS011;9956;51.006;13.670;2022-08-05T04:15:16;4.75;;;4.03;;
19617;SDS011;9956;51.006;13.670;2022-08-05T04:20:21;7.15;;;3.95;;
19617;SDS011;9956;51.006;13.670;2022-08-05T04:25:22;4.40;;;4.00;;
19617;SDS011;9956;51.006;13.670;2022-08-05T04:30:23;7.28;;;4.05;;
19617;SDS011;9956;51.006;13.670;2022-08-05T04:35:23;5.20;;;3.88;;
19617;SDS011;9956;51.006;13.670;2022-08-05T04:40:24;6.90;;;4.25;;
19617;SDS011;9956;51.006;13.670;2022-08-05T04:45:24;5.97;;;3.88;;
19617;SDS011;9956;51.006;13.670;2022-08-05T04:50:25;3.90;;;3.38;;
19617;SDS011;9956;51.006;13.670;2022-08-05T04:55:25;5.68;;;3.95;;
19617;SDS011;9956;51.006;13.670;2022-08-05T05:00:25;5.32;;;4.25;;
19617;SDS011;9956;51.006;13.670;2022-08-05T05:05:26;4.68;;;4.28;;
19617;SDS011;9956;51.006;13.670;2022-08-05T05:10:27;6.88;;;4.40;;
19617;SDS011;9956;51.006;13.670;2022-08-05T05:15:38;4.13;;;3.83;;
19617;SDS011;9956;51.006;13.670;2022-08-05T05:20:41;4.38;;;3.80;;
19617;SDS011;9956;51.006;13.670;2022-08-05T05:25:43;5.30;;;3.83;;
19617;SDS011;9956;51.006;13.670;2022-08-05T05:30:43;4.45;;;3.38;;
19617;SDS011;9956;51.006;13.670;2022-08-05T05:35:46;4.50;;;4.10;;
19617;SDS011;9956;51.006;13.670;2022-08-05T05:40:46;4.47;;;4.07;;
19617;SDS011;9956;51.006;13.670;2022-08-05T05:45:46;4.93;;;3.97;;
19617;SDS011;9956;51.006;13.670;2022-08-05T05:50:47;4.25;;;3.70;;
19617;SDS011;9956;51.006;13.670;2022-08-05T05:55:50;3.47;;;3.17;;
19617;SDS011;9956;51.006;13.670;2022-08-05T06:00:50;3.58;;;3.28;;
19617;SDS011;9956;51.006;13.670;2022-08-05T06:05:51;3.63;;;3.22;;
19617;SDS011;9956;51.006;13.670;2022-08-05T06:10:51;5.28;;;4.00;;
19617;SDS011;9956;51.006;13.670;2022-08-05T06:15:52;6.97;;;3.75;;
19617;SDS011;9956;51.006;13.670;2022-08-05T06:20:52;4.85;;;4.28;;
19617;SDS011;9956;51.006;13.670;2022-08-05T06:25:52;6.55;;;4.00;;
19617;SDS011;9956;51.006;13.670;2022-08-05T06:30:53;4.75;;;3.47;;
19617;SDS011;9956;51.006;13.670;2022-08-05T06:35:53;4.72;;;3.92;;
19617;SDS011;9956;51.006;13.670;2022-08-05T06:40:54;10.85;;;3.65;;
19617;SDS011;9956;51.006;13.670;2022-08-05T06:45:54;4.13;;;2.10;;
19617;SDS011;9956;51.006;13.670;2022-08-05T06:50:54;6.05;;;2.90;;
19617;SDS011;9956;51.006;13.670;2022-08-05T06:55:56;5.43;;;3.00;;
19617;SDS011;9956;51.006;13.670;2022-08-05T07:00:57;6.97;;;2.97;;
19617;SDS011;9956;51.006;13.670;2022-08-05T07:06:00;11.63;;;3.67;;
19617;SDS011;9956;51.006;13.670;2022-08-05T07:11:02;5.75;;;3.50;;
19617;SDS011;9956;51.006;13.670;2022-08-05T07:16:04;5.18;;;3.60;;
19617;SDS011;9956;51.006;13.670;2022-08-05T07:21:23;9.63;;;4.50;;
19617;SDS011;9956;51.006;13.670;2022-08-05T07:26:23;7.50;;;4.10;;
19617;SDS011;9956;51.006;13.670;2022-08-05T07:31:24;7.72;;;5.00;;
19617;SDS011;9956;51.006;13.670;2022-08-05T07:36:24;13.15;;;5.47;;
19617;SDS011;9956;51.006;13.670;2022-08-05T07:41:25;10.02;;;4.93;;
19617;SDS011;9956;51.006;13.670;2022-08-05T07:46:26;7.38;;;5.40;;
19617;SDS011;9956;51.006;13.670;2022-08-05T07:51:27;8.45;;;4.43;;
19617;SDS011;9956;51.006;13.670;2022-08-05T07:56:28;9.60;;;5.00;;
19617;SDS011;9956;51.006;13.670;2022-08-05T08:01:28;6.75;;;4.88;;
19617;SDS011;9956;51.006;13.670;2022-08-05T08:06:28;8.35;;;4.43;;
19617;SDS011;9956;51.006;13.670;2022-08-05T08:11:30;5.88;;;4.32;;
19617;SDS011;9956;51.006;13.670;2022-08-05T08:16:30;6.18;;;4.97;;
19617;SDS011;9956;51.006;13.670;2022-08-05T08:21:31;8.90;;;4.68;;
19617;SDS011;9956;51.006;13.670;2022-08-05T08:26:31;7.70;;;5.22;;
19617;SDS011;9956;51.006;13.670;2022-08-05T08:31:32;8.82;;;5.22;;
19617;SDS011;9956;51.006;13.670;2022-08-05T08:36:32;7.70;;;4.00;;
19617;SDS011;9956;51.006;13.670;2022-08-05T08:41:33;9.60;;;4.30;;
19617;SDS011;9956;51.006;13.670;2022-08-05T08:46:34;5.00;;;3.83;;
19617;SDS011;9956;51.006;13.670;2022-08-05T08:51:35;5.30;;;4.10;;
19617;SDS011;9956;51.006;13.670;2022-08-05T08:56:37;4.00;;;3.63;;
19617;SDS011;9956;51.006;13.670;2022-08-05T09:01:38;6.75;;;3.92;;
19617;SDS011;9956;51.006;13.670;2022-08-05T09:06:41;6.32;;;3.80;;
19617;SDS011;9956;51.006;13.670;2022-08-05T09:11:41;6.20;;;4.10;;
19617;SDS011;9956;51.006;13.670;2022-08-05T09:16:42;6.93;;;3.90;;
19617;SDS011;9956;51.006;13.670;2022-08-05T09:21:42;6.30;;;4.07;;
19617;SDS011;9956;51.006;13.670;2022-08-05T09:26:46;7.23;;;3.50;;
19617;SDS011;9956;51.006;13.670;2022-08-05T09:32:06;6.45;;;3.53;;
19617;SDS011;9956;51.006;13.670;2022-08-05T09:37:15;7.53;;;4.07;;
19617;SDS011;9956;51.006;13.670;2022-08-05T09:42:19;8.60;;;3.92;;
19617;SDS011;9956;51.006;13.670;2022-08-05T09:47:22;6.97;;;3.67;;
19617;SDS011;9956;51.006;13.670;2022-08-05T09:57:28;7.82;;;3.75;;
19617;SDS011;9956;51.006;13.670;2022-08-05T10:02:29;6.38;;;3.80;;
19617;SDS011;9956;51.006;13.670;2022-08-05T10:12:55;9.63;;;4.00;;
19617;SDS011;9956;51.006;13.670;2022-08-05T10:23:25;7.75;;;4.28;;
19617;SDS011;9956;51.006;13.670;2022-08-05T10:28:27;7.63;;;3.88;;
19617;SDS011;9956;51.006;13.670;2022-08-05T10:33:29;6.22;;;4.03;;
19617;SDS011;9956;51.006;13.670;2022-08-05T10:38:31;6.18;;;4.15;;
19617;SDS011;9956;51.006;13.670;2022-08-05T10:48:55;8.60;;;4.10;;
19617;SDS011;9956;51.006;13.670;2022-08-05T10:53:59;6.20;;;3.65;;
19617;SDS011;9956;51.006;13.670;2022-08-05T10:59:01;7.50;;;4.40;;
19617;SDS011;9956;51.006;13.670;2022-08-05T11:09:09;5.63;;;3.97;;
19617;SDS011;9956;51.006;13.670;2022-08-05T11:14:11;5.75;;;3.90;;
19617;SDS011;9956;51.006;13.670;2022-08-05T11:19:29;5.13;;;4.63;;
19617;SDS011;9956;51.006;13.670;2022-08-05T11:24:30;5.90;;;4.20;;
19617;SDS011;9956;51.006;13.670;2022-08-05T11:29:37;7.93;;;3.55;;
19617;SDS011;9956;51.006;13.670;2022-08-05T11:34:41;4.00;;;3.70;;
19617;SDS011;9956;51.006;13.670;2022-08-05T11:39:45;6.77;;;3.93;;
19617;SDS011;9956;51.006;13.670;2022-08-05T11:44:50;5.43;;;3.97;;
19617;SDS011;9956;51.006;13.670;2022-08-05T11:49:54;6.72;;;3.83;;
19617;SDS011;9956;51.006;13.670;2022-08-05T11:54:56;6.90;;;3.95;;
19617;SDS011;9956;51.006;13.670;2022-08-05T11:59:58;4.65;;;4.00;;
19617;SDS011;9956;51.006;13.670;2022-08-05T12:05:00;5.40;;;4.10;;
19617;SDS011;9956;51.006;13.670;2022-08-05T12:10:01;7.57;;;4.07;;
19617;SDS011;9956;51.006;13.670;2022-08-05T12:15:03;7.10;;;3.45;;
19617;SDS011;9956;51.006;13.670;2022-08-05T12:20:05;8.38;;;3.65;;
19617;SDS011;9956;51.006;13.670;2022-08-05T12:25:06;5.05;;;3.13;;
19617;SDS011;9956;51.006;13.670;2022-08-05T12:30:07;5.03;;;2.90;;
19617;SDS011;9956;51.006;13.670;2022-08-05T12:35:10;3.05;;;2.85;;
19617;SDS011;9956;51.006;13.670;2022-08-05T12:40:11;6.15;;;3.38;;
19617;SDS011;9956;51.006;13.670;2022-08-05T12:45:11;6.25;;;2.95;;
19617;SDS011;9956;51.006;13.670;2022-08-05T12:50:14;3.78;;;2.90;;
19617;SDS011;9956;51.006;13.670;2022-08-05T12:55:19;5.50;;;3.50;;
19617;SDS011;9956;51.006;13.670;2022-08-05T13:00:24;4.03;;;2.78;;
19617;SDS011;9956;51.006;13.670;2022-08-05T13:05:25;4.57;;;2.45;;
19617;SDS011;9956;51.006;13.670;2022-08-05T13:10:26;4.75;;;2.50;;
19617;SDS011;9956;51.006;13.670;2022-08-05T13:15:31;3.15;;;2.55;;
19617;SDS011;9956;51.006;13.670;2022-08-05T13:20:32;3.22;;;2.40;;
19617;SDS011;9956;51.006;13.670;2022-08-05T13:25:34;2.80;;;2.60;;
19617;SDS011;9956;51.006;13.670;2022-08-05T13:30:34;4.13;;;2.33;;
19617;SDS011;9956;51.006;13.670;2022-08-05T13:35:34;4.00;;;2.57;;
19617;SDS011;9956;51.006;13.670;2022-08-05T13:40:35;3.30;;;2.17;;
19617;SDS011;9956;51.006;13.670;2022-08-05T13:45:35;3.10;;;2.70;;
19617;SDS011;9956;51.006;13.670;2022-08-05T13:50:36;3.83;;;2.70;;
19617;SDS011;9956;51.006;13.670;2022-08-05T13:55:36;2.97;;;2.63;;
19617;SDS011;9956;51.006;13.670;2022-08-05T14:00:37;7.10;;;2.70;;
19617;SDS011;9956;51.006;13.670;2022-08-05T14:05:37;3.73;;;2.67;;
19617;SDS011;9956;51.006;13.670;2022-08-05T14:10:37;5.03;;;2.67;;
19617;SDS011;9956;51.006;13.670;2022-08-05T14:15:38;6.07;;;2.78;;
19617;SDS011;9956;51.006;13.670;2022-08-05T14:20:38;5.83;;;2.73;;
19617;SDS011;9956;51.006;13.670;2022-08-05T14:25:39;6.38;;;3.28;;
19617;SDS011;9956;51.006;13.670;2022-08-05T14:30:39;4.93;;;2.77;;
19617;SDS011;9956;51.006;13.670;2022-08-05T14:35:40;5.83;;;2.67;;
19617;SDS011;9956;51.006;13.670;2022-08-05T14:40:40;3.30;;;2.63;;
19617;SDS011;9956;51.006;13.670;2022-08-05T14:45:40;3.23;;;2.80;;
19617;SDS011;9956;51.006;13.670;2022-08-05T14:50:41;2.87;;;2.63;;
19617;SDS011;9956;51.006;13.670;2022-08-05T14:55:41;4.13;;;2.30;;
19617;SDS011;9956;51.006;13.670;2022-08-05T15:00:43;2.87;;;2.10;;
19617;SDS011;9956;51.006;13.670;2022-08-05T15:05:43;3.30;;;2.25;;
19617;SDS011;9956;51.006;13.670;2022-08-05T15:10:44;3.77;;;2.70;;
19617;SDS011;9956;51.006;13.670;2022-08-05T15:15:44;3.53;;;2.30;;
19617;SDS011;9956;51.006;13.670;2022-08-05T15:20:45;3.35;;;2.67;;
19617;SDS011;9956;51.006;13.670;2022-08-05T15:25:45;3.63;;;2.10;;
19617;SDS011;9956;51.006;13.670;2022-08-05T15:30:46;4.97;;;2.60;;
19617;SDS011;9956;51.006;13.670;2022-08-05T15:35:46;3.13;;;1.90;;
19617;SDS011;9956;51.006;13.670;2022-08-05T15:40:46;4.20;;;2.73;;
19617;SDS011;9956;51.006;13.670;2022-08-05T15:45:47;3.45;;;2.30;;
19617;SDS011;9956;51.006;13.670;2022-08-05T15:50:48;3.47;;;2.45;;
19617;SDS011;9956;51.006;13.670;2022-08-05T15:55:48;2.63;;;2.05;;
19617;SDS011;9956;51.006;13.670;2022-08-05T16:00:48;4.20;;;2.80;;
19617;SDS011;9956;51.006;13.670;2022-08-05T16:05:49;5.30;;;2.75;;
19617;SDS011;9956;51.006;13.670;2022-08-05T16:10:49;4.77;;;2.47;;
19617;SDS011;9956;51.006;13.670;2022-08-05T16:15:50;4.60;;;2.50;;
19617;SDS011;9956;51.006;13.670;2022-08-05T16:20:53;4.28;;;3.30;;
19617;SDS011;9956;51.006;13.670;2022-08-05T16:26:09;2.53;;;2.35;;
19617;SDS011;9956;51.006;13.670;2022-08-05T16:31:09;3.40;;;2.72;;
19617;SDS011;9956;51.006;13.670;2022-08-05T16:36:10;3.50;;;2.77;;
19617;SDS011;9956;51.006;13.670;2022-08-05T16:41:10;4.55;;;3.00;;
19617;SDS011;9956;51.006;13.670;2022-08-05T16:46:11;5.13;;;2.92;;
19617;SDS011;9956;51.006;13.670;2022-08-05T16:51:11;3.33;;;2.40;;
19617;SDS011;9956;51.006;13.670;2022-08-05T16:56:12;6.47;;;3.33;;
19617;SDS011;9956;51.006;13.670;2022-08-05T17:01:12;4.20;;;2.90;;
19617;SDS011;9956;51.006;13.670;2022-08-05T17:06:12;7.63;;;2.80;;
19617;SDS011;9956;51.006;13.670;2022-08-05T17:11:13;4.77;;;2.77;;
19617;SDS011;9956;51.006;13.670;2022-08-05T17:16:13;6.88;;;2.83;;
19617;SDS011;9956;51.006;13.670;2022-08-05T17:21:14;6.10;;;1.98;;
19617;SDS011;9956;51.006;13.670;2022-08-05T17:26:14;4.05;;;2.17;;
19617;SDS011;9956;51.006;13.670;2022-08-05T17:31:15;5.72;;;2.72;;
19617;SDS011;9956;51.006;13.670;2022-08-05T17:36:15;4.63;;;2.08;;
19617;SDS011;9956;51.006;13.670;2022-08-05T17:41:16;5.35;;;2.20;;
19617;SDS011;9956;51.006;13.670;2022-08-05T17:46:16;22.75;;;3.47;;
19617;SDS011;9956;51.006;13.670;2022-08-05T17:51:19;12.98;;;3.28;;
19617;SDS011;9956;51.006;13.670;2022-08-05T17:56:19;19.33;;;3.10;;
19617;SDS011;9956;51.006;13.670;2022-08-05T18:01:20;9.10;;;2.77;;
19617;SDS011;9956;51.006;13.670;2022-08-05T18:06:20;6.93;;;2.92;;
19617;SDS011;9956;51.006;13.670;2022-08-05T18:11:21;3.50;;;2.70;;
19617;SDS011;9956;51.006;13.670;2022-08-05T18:16:22;6.45;;;2.63;;
19617;SDS011;9956;51.006;13.670;2022-08-05T18:21:22;9.10;;;2.78;;
19617;SDS011;9956;51.006;13.670;2022-08-05T18:26:22;4.88;;;2.80;;
19617;SDS011;9956;51.006;13.670;2022-08-05T18:31:23;6.22;;;2.55;;
19617;SDS011;9956;51.006;13.670;2022-08-05T18:36:24;4.88;;;4.20;;
19617;SDS011;9956;51.006;13.670;2022-08-05T18:41:24;5.20;;;3.78;;
19617;SDS011;9956;51.006;13.670;2022-08-05T18:46:24;4.53;;;3.70;;
19617;SDS011;9956;51.006;13.670;2022-08-05T18:51:26;7.85;;;6.45;;
19617;SDS011;9956;51.006;13.670;2022-08-05T18:56:45;7.10;;;6.15;;
19617;SDS011;9956;51.006;13.670;2022-08-05T19:01:45;7.90;;;6.25;;
19617;SDS011;9956;51.006;13.670;2022-08-05T19:06:46;9.00;;;6.63;;
19617;SDS011;9956;51.006;13.670;2022-08-05T19:11:46;10.07;;;7.05;;
19617;SDS011;9956;51.006;13.670;2022-08-05T19:16:47;7.18;;;6.47;;
19617;SDS011;9956;51.006;13.670;2022-08-05T19:21:47;7.32;;;6.65;;
19617;SDS011;9956;51.006;13.670;2022-08-05T19:26:47;7.63;;;6.03;;
19617;SDS011;9956;51.006;13.670;2022-08-05T19:31:48;8.25;;;7.50;;
19617;SDS011;9956;51.006;13.670;2022-08-05T19:36:48;9.60;;;7.97;;
19617;SDS011;9956;51.006;13.670;2022-08-05T19:41:49;10.45;;;9.23;;
19617;SDS011;9956;51.006;13.670;2022-08-05T19:46:49;9.95;;;7.47;;
19617;SDS011;9956;51.006;13.670;2022-08-05T19:51:50;11.32;;;8.02;;
19617;SDS011;9956;51.006;13.670;2022-08-05T19:56:50;7.72;;;6.72;;
19617;SDS011;9956;51.006;13.670;2022-08-05T20:01:51;7.10;;;5.80;;
19617;SDS011;9956;51.006;13.670;2022-08-05T20:06:51;4.88;;;4.07;;
19617;SDS011;9956;51.006;13.670;2022-08-05T20:11:51;4.40;;;3.88;;
19617;SDS011;9956;51.006;13.670;2022-08-05T20:16:52;4.82;;;3.03;;
19617;SDS011;9956;51.006;13.670;2022-08-05T20:21:52;3.85;;;3.40;;
19617;SDS011;9956;51.006;13.670;2022-08-05T20:26:53;3.88;;;2.40;;
19617;SDS011;9956;51.006;13.670;2022-08-05T20:31:53;2.97;;;1.80;;
19617;SDS011;9956;51.006;13.670;2022-08-05T20:36:54;3.42;;;1.73;;
19617;SDS011;9956;51.006;13.670;2022-08-05T20:41:54;2.50;;;1.67;;
19617;SDS011;9956;51.006;13.670;2022-08-05T20:46:55;2.88;;;1.20;;
19617;SDS011;9956;51.006;13.670;2022-08-05T20:51:57;3.10;;;1.10;;
19617;SDS011;9956;51.006;13.670;2022-08-05T20:56:57;2.42;;;0.60;;
19617;SDS011;9956;51.006;13.670;2022-08-05T21:01:57;1.63;;;0.70;;
19617;SDS011;9956;51.006;13.670;2022-08-05T21:06:58;3.45;;;1.02;;
19617;SDS011;9956;51.006;13.670;2022-08-05T21:11:58;1.00;;;0.80;;
19617;SDS011;9956;51.006;13.670;2022-08-05T21:16:59;1.67;;;0.95;;
19617;SDS011;9956;51.006;13.670;2022-08-05T21:22:00;1.45;;;1.10;;
19617;SDS011;9956;51.006;13.670;2022-08-05T21:27:00;1.33;;;0.98;;
19617;SDS011;9956;51.006;13.670;2022-08-05T21:32:01;2.97;;;1.10;;
19617;SDS011;9956;51.006;13.670;2022-08-05T21:37:02;1.17;;;0.98;;
19617;SDS011;9956;51.006;13.670;2022-08-05T21:42:03;1.50;;;0.95;;
19617;SDS011;9956;51.006;13.670;2022-08-05T21:47:04;0.93;;;0.77;;
19617;SDS011;9956;51.006;13.670;2022-08-05T21:52:05;1.05;;;0.80;;
19617;SDS011;9956;51.006;13.670;2022-08-05T21:57:06;2.22;;;1.20;;
19617;SDS011;9956;51.006;13.670;2022-08-05T22:02:08;1.67;;;0.75;;
19617;SDS011;9956;51.006;13.670;2022-08-05T22:07:08;2.40;;;1.08;;
19617;SDS011;9956;51.006;13.670;2022-08-05T22:12:08;3.08;;;1.52;;
19617;SDS011;9956;51.006;13.670;2022-08-05T22:17:10;1.55;;;0.75;;
19617;SDS011;9956;51.006;13.670;2022-08-05T22:22:11;2.53;;;0.90;;
19617;SDS011;9956;51.006;13.670;2022-08-05T22:27:11;2.50;;;1.00;;
19617;SDS011;9956;51.006;13.670;2022-08-05T22:32:30;1.92;;;1.00;;
19617;SDS011;9956;51.006;13.670;2022-08-05T22:37:31;2.38;;;1.10;;
19617;SDS011;9956;51.006;13.670;2022-08-05T22:42:31;3.53;;;1.00;;
19617;SDS011;9956;51.006;13.670;2022-08-05T22:47:31;1.95;;;1.00;;
19617;SDS011;9956;51.006;13.670;2022-08-05T22:52:32;3.63;;;1.45;;
19617;SDS011;9956;51.006;13.670;2022-08-05T22:57:32;4.38;;;1.40;;
19617;SDS011;9956;51.006;13.670;2022-08-05T23:02:33;4.50;;;1.50;;
19617;SDS011;9956;51.006;13.670;2022-08-05T23:07:34;4.50;;;1.67;;
19617;SDS011;9956;51.006;13.670;2022-08-05T23:12:35;4.90;;;2.35;;
19617;SDS011;9956;51.006;13.670;2022-08-05T23:17:35;1.70;;;1.55;;
19617;SDS011;9956;51.006;13.670;2022-08-05T23:22:36;3.45;;;1.40;;
19617;SDS011;9956;51.006;13.670;2022-08-05T23:27:36;2.45;;;1.73;;
19617;SDS011;9956;51.006;13.670;2022-08-05T23:32:37;2.28;;;1.40;;
19617;SDS011;9956;51.006;13.670;2022-08-05T23:37:38;2.38;;;1.50;;
19617;SDS011;9956;51.006;13.670;2022-08-05T23:42:38;1.58;;;1.48;;
19617;SDS011;9956;51.006;13.670;2022-08-05T23:47:39;3.17;;;1.75;;
19617;SDS011;9956;51.006;13.670;2022-08-05T23:52:39;2.58;;;1.50;;
19617;SDS011;9956;51.006;13.670;2022-08-05T23:57:39;5.10;;;1.98;;
